createdAt,value
2018-03-06T00:00:13.171Z,19.73
2018-03-06T00:02:41.834Z,21.08
2018-03-06T00:05:10.534Z,20.70
2018-03-06T00:07:39.111Z,22.15
2018-03-06T00:10:07.926Z,22.10
2018-03-06T00:12:36.781Z,21.02
2018-03-06T00:15:05.420Z,19.35
2018-03-06T00:17:33.997Z,20.85
2018-03-06T00:20:02.494Z,21.70
2018-03-06T00:22:30.997Z,21.33
2018-03-06T00:24:59.502Z,22.00
2018-03-06T00:27:28.797Z,23.05
2018-03-06T00:29:57.400Z,21.48
2018-03-06T00:32:25.875Z,22.37
2018-03-06T00:34:55.453Z,22.02
2018-03-06T00:37:24.759Z,23.45
2018-03-06T00:39:53.336Z,23.15
2018-03-06T00:42:21.889Z,23.67
2018-03-06T00:44:50.337Z,22.67
2018-03-06T00:47:18.802Z,22.92
2018-03-06T00:49:48.491Z,22.35
2018-03-06T00:52:16.968Z,24.17
2018-03-06T00:54:45.561Z,23.40
2018-03-06T00:57:14.099Z,24.37
2018-03-06T00:59:42.551Z,26.98
2018-03-06T01:02:11.063Z,25.27
2018-03-06T01:04:39.719Z,27.13
2018-03-06T01:07:08.188Z,28.27
2018-03-06T01:09:36.733Z,30.83
2018-03-06T01:12:05.275Z,28.80
2018-03-06T01:14:33.778Z,29.73
2018-03-06T01:17:03.061Z,33.47
2018-03-06T01:19:31.598Z,25.95
2018-03-06T01:22:00.059Z,26.08
2018-03-06T01:24:28.577Z,27.27
2018-03-06T01:26:57.243Z,27.37
2018-03-06T01:29:25.786Z,25.17
2018-03-06T01:31:54.344Z,24.20
2018-03-06T01:34:22.923Z,25.10
2018-03-06T01:36:51.371Z,25.00
2018-03-06T01:39:19.942Z,24.52
2018-03-06T01:41:48.523Z,25.45
2018-03-06T01:44:17.017Z,25.42
2018-03-06T01:46:45.582Z,23.95
2018-03-06T01:49:15.309Z,24.17
2018-03-06T01:51:55.674Z,25.83
2018-03-06T01:54:24.484Z,25.55
2018-03-06T01:56:52.990Z,26.52
2018-03-06T01:59:21.434Z,25.67
2018-03-06T02:01:50.796Z,24.55
2018-03-06T02:04:19.394Z,24.55
2018-03-06T02:06:47.874Z,26.42
2018-03-06T02:09:16.671Z,25.77
2018-03-06T02:11:45.253Z,25.88
2018-03-06T02:14:13.833Z,26.83
2018-03-06T02:16:42.629Z,27.50
2018-03-06T02:19:11.202Z,26.42
2018-03-06T02:21:39.992Z,27.13
2018-03-06T02:24:09.003Z,27.85
2018-03-06T02:26:37.576Z,26.92
2018-03-06T02:29:06.148Z,25.73
2018-03-06T02:31:35.712Z,27.80
2018-03-06T02:34:04.213Z,27.92
2018-03-06T02:36:32.696Z,28.23
2018-03-06T02:39:01.203Z,31.35
2018-03-06T02:41:29.683Z,28.65
2018-03-06T02:43:58.200Z,26.77
2018-03-06T02:46:27.525Z,27.92
2018-03-06T02:48:56.000Z,29.60
2018-03-06T02:51:24.525Z,27.75
2018-03-06T02:53:53.904Z,28.52
2018-03-06T02:56:22.392Z,28.62
2018-03-06T02:58:50.902Z,29.85
2018-03-06T03:01:19.801Z,28.70
2018-03-06T03:03:48.320Z,27.95
2018-03-06T03:06:17.284Z,30.65
2018-03-06T03:08:46.006Z,28.80
2018-03-06T03:11:14.506Z,30.12
2018-03-06T03:13:43.151Z,30.40
2018-03-06T03:16:11.755Z,30.15
2018-03-06T03:18:40.201Z,30.25
2018-03-06T03:21:08.652Z,28.95
2018-03-06T03:23:37.930Z,31.33
2018-03-06T03:26:06.457Z,31.00
2018-03-06T03:28:34.938Z,29.85
2018-03-06T03:31:03.455Z,30.73
2018-03-06T03:33:32.006Z,31.50
2018-03-06T03:36:00.488Z,30.67
2018-03-06T03:38:28.989Z,31.65
2018-03-06T03:40:57.450Z,30.70
2018-03-06T03:43:25.903Z,31.08
2018-03-06T03:45:54.446Z,29.77
2018-03-06T03:48:23.868Z,33.70
2018-03-06T03:50:52.370Z,31.33
2018-03-06T03:53:20.876Z,32.67
2018-03-06T03:55:50.033Z,30.20
2018-03-06T03:58:18.508Z,30.88
2018-03-06T04:00:47.445Z,33.53
2018-03-06T04:03:15.906Z,32.15
2018-03-06T04:05:44.382Z,33.28
2018-03-06T04:08:13.085Z,33.58
2018-03-06T04:10:41.712Z,30.90
2018-03-06T04:13:10.185Z,32.58
2018-03-06T04:15:38.918Z,35.28
2018-03-06T04:18:07.452Z,35.33
2018-03-06T04:20:36.447Z,30.95
2018-03-06T04:23:05.032Z,32.72
2018-03-06T04:25:37.040Z,35.15
2018-03-06T04:28:06.309Z,33.40
2018-03-06T04:30:34.872Z,31.65
2018-03-06T04:33:03.374Z,32.15
2018-03-06T04:35:31.933Z,31.83
2018-03-06T04:38:00.576Z,34.70
2018-03-06T04:40:29.042Z,34.47
2018-03-06T04:42:58.055Z,33.92
2018-03-06T04:45:26.572Z,36.88
2018-03-06T04:47:56.346Z,33.40
2018-03-06T04:50:25.172Z,35.40
2018-03-06T04:52:53.697Z,35.10
2018-03-06T04:55:22.667Z,34.15
2018-03-06T04:57:51.184Z,34.35
2018-03-06T05:00:19.666Z,37.75
2018-03-06T05:02:48.084Z,38.80
2018-03-06T05:05:16.980Z,35.75
2018-03-06T05:07:45.467Z,37.60
2018-03-06T05:10:14.007Z,37.47
2018-03-06T05:12:43.063Z,35.25
2018-03-06T05:15:11.649Z,39.55
2018-03-06T05:17:40.209Z,36.08
2018-03-06T05:20:08.910Z,35.58
2018-03-06T05:22:37.550Z,39.67
2018-03-06T05:25:06.229Z,40.83
2018-03-06T05:27:35.229Z,37.85
2018-03-06T05:30:03.760Z,37.22
2018-03-06T05:32:32.286Z,39.03
2018-03-06T05:35:00.818Z,38.72
2018-03-06T05:37:29.346Z,36.90
2018-03-06T05:39:57.785Z,41.63
2018-03-06T05:42:26.402Z,39.13
2018-03-06T05:44:54.949Z,39.42
2018-03-06T05:47:23.504Z,41.47
2018-03-06T05:49:52.044Z,42.92
2018-03-06T05:52:20.497Z,38.97
2018-03-06T05:54:48.950Z,41.85
2018-03-06T05:57:17.698Z,40.95
2018-03-06T05:59:46.270Z,41.67
2018-03-06T06:02:15.121Z,42.72
2018-03-06T06:04:43.697Z,42.30
2018-03-06T06:07:12.279Z,41.70
2018-03-06T06:09:40.922Z,40.50
2018-03-06T06:12:11.656Z,40.20
2018-03-06T06:14:40.285Z,42.97
2018-03-06T06:17:08.970Z,41.50
2018-03-06T06:19:37.738Z,40.83
2018-03-06T06:22:06.219Z,41.15
2018-03-06T06:24:34.734Z,44.25
2018-03-06T06:27:03.306Z,40.20
2018-03-06T06:29:31.751Z,42.47
2018-03-06T06:32:00.194Z,40.08
2018-03-06T06:34:28.755Z,44.90
2018-03-06T06:36:57.329Z,45.67
2018-03-06T06:39:25.776Z,41.75
2018-03-06T06:41:54.387Z,45.33
2018-03-06T06:44:22.817Z,42.50
2018-03-06T06:46:51.320Z,42.80
2018-03-06T06:49:20.112Z,42.33
2018-03-06T06:51:48.778Z,44.13
2018-03-06T06:54:17.604Z,41.40
2018-03-06T06:56:47.122Z,42.85
2018-03-06T06:59:15.777Z,40.17
2018-03-06T07:01:44.318Z,39.85
2018-03-06T07:04:14.833Z,42.55
2018-03-06T07:06:43.759Z,42.92
2018-03-06T07:09:12.491Z,42.47
2018-03-06T07:11:41.072Z,42.75
2018-03-06T07:14:09.756Z,42.90
2018-03-06T07:16:38.650Z,40.67
2018-03-06T07:19:07.546Z,39.30
2018-03-06T07:21:36.127Z,37.97
2018-03-06T07:24:04.703Z,40.12
2018-03-06T07:26:33.471Z,37.47
2018-03-06T07:29:02.017Z,39.22
2018-03-06T07:31:30.456Z,36.60
2018-03-06T07:33:59.038Z,34.65
2018-03-06T07:36:27.542Z,35.22
2018-03-06T07:38:55.974Z,32.67
2018-03-06T07:41:24.494Z,32.33
2018-03-06T07:43:52.971Z,34.97
2018-03-06T07:46:21.555Z,33.38
2018-03-06T07:48:50.119Z,31.52
2018-03-06T07:51:19.422Z,29.08
2018-03-06T07:53:47.924Z,33.03
2018-03-06T07:56:17.498Z,30.20
2018-03-06T07:58:46.080Z,34.78
2018-03-06T08:01:14.684Z,33.90
2018-03-06T08:03:45.106Z,33.20
2018-03-06T08:06:13.800Z,33.53
2018-03-06T08:08:42.585Z,32.35
2018-03-06T08:11:11.266Z,31.95
2018-03-06T08:13:39.747Z,30.05
2018-03-06T08:16:08.384Z,31.42
2018-03-06T08:18:37.121Z,32.22
2018-03-06T08:21:05.609Z,32.10
2018-03-06T08:23:34.185Z,34.58
2018-03-06T08:26:02.980Z,34.13
2018-03-06T08:28:31.582Z,34.30
2018-03-06T08:31:00.149Z,32.85
2018-03-06T08:33:29.837Z,33.78
2018-03-06T08:35:58.282Z,32.08
2018-03-06T08:38:26.825Z,30.90
2018-03-06T08:40:55.374Z,32.95
2018-03-06T08:43:23.821Z,33.13
2018-03-06T08:45:52.302Z,34.10
2018-03-06T08:48:20.829Z,33.28
2018-03-06T08:50:49.314Z,35.17
2018-03-06T08:53:17.745Z,36.92
2018-03-06T08:55:46.263Z,35.15
2018-03-06T08:58:14.748Z,37.60
2018-03-06T09:00:43.241Z,37.55
2018-03-06T09:03:12.176Z,38.40
2018-03-06T09:05:40.824Z,40.83
2018-03-06T09:08:09.491Z,37.95
2018-03-06T09:10:38.071Z,40.72
2018-03-06T09:13:06.727Z,39.15
2018-03-06T09:15:35.309Z,38.90
2018-03-06T09:18:04.702Z,38.40
2018-03-06T09:20:33.204Z,39.53
2018-03-06T09:23:01.674Z,37.50
2018-03-06T09:25:31.483Z,40.10
2018-03-06T09:27:59.968Z,41.25
2018-03-06T09:30:28.453Z,39.60
2018-03-06T09:32:56.960Z,39.73
2018-03-06T09:35:25.413Z,40.80
2018-03-06T09:37:53.846Z,43.27
2018-03-06T09:40:22.429Z,40.73
2018-03-06T09:42:50.857Z,43.63
2018-03-06T09:45:19.305Z,41.10
2018-03-06T09:47:48.053Z,45.00
2018-03-06T09:50:16.739Z,41.30
2018-03-06T09:52:45.219Z,41.20
2018-03-06T09:55:13.905Z,41.60
2018-03-06T09:57:42.528Z,41.33
2018-03-06T10:00:11.170Z,44.40
2018-03-06T10:02:39.772Z,47.60
2018-03-06T10:05:08.442Z,44.10
2018-03-06T10:07:37.037Z,44.10
2018-03-06T10:10:05.712Z,42.87
2018-03-06T10:12:34.199Z,43.13
2018-03-06T10:15:02.700Z,41.57
2018-03-06T10:17:31.212Z,44.57
2018-03-06T10:19:59.749Z,43.23
2018-03-06T10:22:28.285Z,41.47
2018-03-06T10:24:57.146Z,44.00
2018-03-06T10:27:27.650Z,41.30
2018-03-06T10:29:56.131Z,38.77
2018-03-06T10:32:24.604Z,42.00
2018-03-06T10:34:53.189Z,38.83
2018-03-06T10:37:21.673Z,37.23
2018-03-06T10:39:50.196Z,41.40
2018-03-06T10:42:18.830Z,41.87
2018-03-06T10:44:47.445Z,40.00
2018-03-06T10:47:15.965Z,40.20
2018-03-06T10:49:44.397Z,41.40
2018-03-06T10:52:13.326Z,39.93
2018-03-06T10:54:41.898Z,38.67
2018-03-06T10:57:10.467Z,41.63
2018-03-06T10:59:38.940Z,45.60
2018-03-06T11:02:07.708Z,40.30
2018-03-06T11:04:36.329Z,47.57
2018-03-06T11:07:04.808Z,43.63
2018-03-06T11:09:33.292Z,43.47
2018-03-06T11:12:01.865Z,43.33
2018-03-06T11:14:32.707Z,41.93
2018-03-06T11:17:01.226Z,42.60
2018-03-06T11:19:29.730Z,45.47
2018-03-06T11:21:58.257Z,44.50
2018-03-06T11:24:28.783Z,44.80
2018-03-06T11:26:57.234Z,48.60
2018-03-06T11:29:25.646Z,44.80
2018-03-06T11:31:54.154Z,45.97
2018-03-06T11:34:22.598Z,45.70
2018-03-06T11:36:51.146Z,46.60
2018-03-06T11:39:19.699Z,42.87
2018-03-06T11:41:48.245Z,46.90
2018-03-06T11:44:16.723Z,44.33
2018-03-06T11:46:45.247Z,50.07
2018-03-06T11:49:13.895Z,48.30
2018-03-06T11:51:42.654Z,50.17
2018-03-06T11:54:12.204Z,47.27
2018-03-06T11:56:40.769Z,45.40
2018-03-06T11:59:09.550Z,44.77
2018-03-06T12:01:38.238Z,47.03
2018-03-06T12:04:06.875Z,44.50
2018-03-06T12:06:36.039Z,48.23
2018-03-06T12:09:04.603Z,47.30
2018-03-06T12:11:33.060Z,47.87
2018-03-06T12:14:01.559Z,46.70
2018-03-06T12:16:30.116Z,44.60
2018-03-06T12:18:59.448Z,41.93
2018-03-06T12:21:28.491Z,44.47
2018-03-06T12:23:57.050Z,42.50
2018-03-06T12:26:25.592Z,41.97
2018-03-06T12:32:05.459Z,43.13
2018-03-06T12:34:35.476Z,46.07
2018-03-06T12:37:09.755Z,37.40
2018-03-06T12:39:39.018Z,42.87
2018-03-06T12:42:07.678Z,43.00
2018-03-06T12:44:36.197Z,40.73
2018-03-06T12:47:25.427Z,41.00
2018-03-06T12:49:58.921Z,41.33
2018-03-06T12:52:28.323Z,41.80
2018-03-06T12:54:56.803Z,43.83
2018-03-06T12:57:25.261Z,44.70
2018-03-06T12:59:56.458Z,41.00
2018-03-06T13:02:25.066Z,41.50
2018-03-06T13:04:53.599Z,41.20
2018-03-06T13:07:24.172Z,35.30
2018-03-06T13:09:57.964Z,41.50
2018-03-06T13:12:26.849Z,41.07
2018-03-06T13:14:56.463Z,40.53
2018-03-06T13:17:26.507Z,41.58
2018-03-06T13:20:06.087Z,41.35
2018-03-06T13:22:41.843Z,40.65
2018-03-06T13:25:10.420Z,42.92
2018-03-06T13:28:01.839Z,43.60
2018-03-06T13:33:30.318Z,44.13
2018-03-06T13:39:30.912Z,43.83
2018-03-06T13:41:59.505Z,41.70
2018-03-06T13:47:33.241Z,42.95
2018-03-06T13:50:02.201Z,46.63
2018-03-06T13:52:32.253Z,41.30
2018-03-06T13:57:58.356Z,43.55
2018-03-06T14:00:30.243Z,43.97
2018-03-06T14:03:00.643Z,42.20
2018-03-06T14:05:29.562Z,40.42
2018-03-06T14:08:04.182Z,39.17
2018-03-06T14:10:38.579Z,45.83
2018-03-06T14:13:08.035Z,45.63
2018-03-06T14:15:37.035Z,44.33
2018-03-06T14:18:06.336Z,40.70
2018-03-06T14:20:36.805Z,41.37
2018-03-06T14:23:05.335Z,44.33
2018-03-06T14:25:33.744Z,43.92
2018-03-06T14:28:04.294Z,40.47
2018-03-06T14:30:32.720Z,45.63
2018-03-06T14:33:01.161Z,44.53
2018-03-06T14:35:29.868Z,42.25
2018-03-06T14:37:58.328Z,46.03
2018-03-06T14:40:27.320Z,41.83
2018-03-06T14:42:59.389Z,46.15
2018-03-06T14:45:28.272Z,42.90
2018-03-06T14:47:56.958Z,42.97
2018-03-06T14:50:25.417Z,44.75
2018-03-06T14:52:53.833Z,41.85
2018-03-06T14:55:22.331Z,45.40
2018-03-06T14:57:51.605Z,43.55
2018-03-06T15:00:20.220Z,43.72
2018-03-06T15:02:48.729Z,46.15
2018-03-06T15:05:18.553Z,45.47
2018-03-06T15:07:47.070Z,46.80
2018-03-06T15:10:15.750Z,48.03
2018-03-06T15:12:45.017Z,47.03
2018-03-06T15:15:13.949Z,48.80
2018-03-06T15:17:42.637Z,49.80
2018-03-06T15:20:11.891Z,51.88
2018-03-06T15:22:40.506Z,49.17
2018-03-06T15:25:10.066Z,48.58
2018-03-06T15:27:39.137Z,47.53
2018-03-06T15:30:07.755Z,48.00
2018-03-06T15:32:38.040Z,49.95
2018-03-06T15:35:07.348Z,46.67
2018-03-06T15:37:38.928Z,50.40
2018-03-06T15:40:09.469Z,46.95
2018-03-06T15:42:38.257Z,49.83
2018-03-06T15:45:07.444Z,45.17
2018-03-06T15:47:36.069Z,47.10
2018-03-06T15:50:04.757Z,53.17
2018-03-06T15:52:33.354Z,48.03
2018-03-06T15:55:02.692Z,47.35
2018-03-06T15:57:31.176Z,45.65
2018-03-06T16:00:00.843Z,49.17
2018-03-06T16:02:30.175Z,49.55
2018-03-06T16:04:58.819Z,48.50
2018-03-06T16:07:27.404Z,47.30
2018-03-06T16:09:55.979Z,50.90
2018-03-06T16:12:24.539Z,48.78
2018-03-06T16:14:53.812Z,52.95
2018-03-06T16:17:22.823Z,52.92
2018-03-06T16:19:51.398Z,53.70
2018-03-06T16:22:19.984Z,59.72
2018-03-06T16:24:49.673Z,56.00
2018-03-06T16:27:18.367Z,57.65
2018-03-06T16:29:46.976Z,54.65
2018-03-06T16:32:15.853Z,58.03
2018-03-06T16:34:44.729Z,56.95
2018-03-06T16:37:14.660Z,57.70
2018-03-06T16:39:43.339Z,59.05
2018-03-06T16:42:12.237Z,62.40
2018-03-06T16:44:44.037Z,61.40
2018-03-06T16:47:13.969Z,61.15
2018-03-06T16:49:43.027Z,66.50
2018-03-06T16:52:15.215Z,61.17
2018-03-06T16:54:44.208Z,65.30
2018-03-06T16:57:15.635Z,60.90
2018-03-06T16:59:47.058Z,65.40
2018-03-06T17:02:16.354Z,63.67
2018-03-06T17:04:45.725Z,62.38
2018-03-06T17:07:16.205Z,65.47
2018-03-06T17:09:45.966Z,61.25
2018-03-06T17:12:15.813Z,62.58
2018-03-06T17:14:44.931Z,60.03
2018-03-06T17:17:14.538Z,63.78
2018-03-06T17:19:43.100Z,57.33
2018-03-06T17:22:11.658Z,60.72
2018-03-06T17:24:42.218Z,59.22
2018-03-06T17:27:13.837Z,62.30
2018-03-06T17:29:44.473Z,59.17
2018-03-06T17:32:14.312Z,61.45
2018-03-06T17:34:43.574Z,61.20
2018-03-06T17:37:12.464Z,58.35
2018-03-06T17:39:42.697Z,60.90
2018-03-06T17:42:13.656Z,60.90
2018-03-06T17:44:42.633Z,59.70
2018-03-06T17:47:11.647Z,57.85
2018-03-06T17:49:43.196Z,63.25
2018-03-06T17:52:11.855Z,63.95
2018-03-06T17:54:43.518Z,59.13
2018-03-06T17:57:13.277Z,63.60
2018-03-06T17:59:43.446Z,58.10
2018-03-06T18:02:15.333Z,65.75
2018-03-06T18:04:44.085Z,66.65
2018-03-06T18:07:15.098Z,67.70
2018-03-06T18:09:46.743Z,67.85
2018-03-06T18:12:16.486Z,65.47
2018-03-06T18:14:45.096Z,64.78
2018-03-06T18:17:15.610Z,65.82
2018-03-06T18:19:46.682Z,67.65
2018-03-06T18:22:19.873Z,71.18
2018-03-06T18:24:49.026Z,66.87
2018-03-06T18:27:17.634Z,71.65
2018-03-06T18:29:46.505Z,75.40
2018-03-06T18:32:17.183Z,71.10
2018-03-06T18:34:46.226Z,71.40
2018-03-06T18:37:16.562Z,69.93
2018-03-06T18:39:45.590Z,68.95
2018-03-06T18:42:14.100Z,70.68
2018-03-06T18:44:49.201Z,67.93
2018-03-06T18:47:21.687Z,73.07
2018-03-06T19:32:11.089Z,63.55
2018-03-06T19:34:39.733Z,64.22
2018-03-06T19:37:08.493Z,69.65
2018-03-06T19:39:37.574Z,63.33
2018-03-06T19:42:06.062Z,65.07
2018-03-06T19:44:34.599Z,65.62
2018-03-06T19:47:03.591Z,61.37
2018-03-06T19:49:33.273Z,64.55
2018-03-06T19:52:01.752Z,68.37
2018-03-06T19:54:30.749Z,67.30
2018-03-06T19:56:59.458Z,65.85
2018-03-06T19:59:27.910Z,66.97
2018-03-06T20:01:56.422Z,65.82
2018-03-06T20:04:25.135Z,69.35
2018-03-06T20:06:54.163Z,65.60
2018-03-06T20:09:23.656Z,65.72
2018-03-06T20:11:52.315Z,65.07
2018-03-06T20:14:27.502Z,70.03
2018-03-06T20:16:56.087Z,66.03
2018-03-06T20:19:30.291Z,70.32
2018-03-06T20:21:59.869Z,61.88
2018-03-06T20:24:33.945Z,67.82
2018-03-06T20:27:02.496Z,64.22
2018-03-06T20:29:31.050Z,66.45
2018-03-06T20:32:06.447Z,64.85
2018-03-06T20:34:41.994Z,66.70
2018-03-06T20:37:12.824Z,61.47
2018-03-06T20:39:47.531Z,67.47
2018-03-06T20:42:18.681Z,67.50
2018-03-06T20:44:58.117Z,67.97
2018-03-06T20:47:28.727Z,70.70
2018-03-06T20:49:58.474Z,64.72
2018-03-06T20:52:31.385Z,64.03
2018-03-06T20:55:06.278Z,69.35
2018-03-06T20:57:35.198Z,65.62
2018-03-06T21:00:14.205Z,67.00
2018-03-06T21:02:48.114Z,65.65
2018-03-06T21:05:18.565Z,67.80
2018-03-06T21:07:48.164Z,66.07
2018-03-06T21:10:17.319Z,74.93
2018-03-06T21:12:46.135Z,69.75
2018-03-06T21:15:15.499Z,68.15
2018-03-06T21:17:47.769Z,69.07
2018-03-06T21:20:17.001Z,67.55
2018-03-06T21:22:51.329Z,69.97
2018-03-06T21:25:20.208Z,68.70
2018-03-06T21:27:49.000Z,66.47
2018-03-06T21:30:17.780Z,72.65
2018-03-06T21:32:48.232Z,65.87
2018-03-06T21:35:17.177Z,72.28
2018-03-06T21:37:48.592Z,71.25
2018-03-06T21:40:17.303Z,70.95
2018-03-06T21:42:51.279Z,76.28
2018-03-06T21:45:20.194Z,70.93
2018-03-06T21:47:48.776Z,69.20
2018-03-06T21:50:18.408Z,71.75
2018-03-06T21:52:47.757Z,72.18
2018-03-06T21:55:16.822Z,68.12
2018-03-06T21:57:47.060Z,76.97
2018-03-06T22:00:18.473Z,74.60
2018-03-06T22:02:49.004Z,70.32
2018-03-06T22:05:18.531Z,74.53
2018-03-06T22:07:47.176Z,69.28
2018-03-06T22:10:17.127Z,69.50
2018-03-06T22:12:46.705Z,73.35
2018-03-06T22:15:17.858Z,69.60
2018-03-06T22:17:46.771Z,68.62
2018-03-06T22:20:16.003Z,73.97
2018-03-06T22:22:45.266Z,73.07
2018-03-06T22:25:14.729Z,69.20
2018-03-06T22:27:46.485Z,74.53
2018-03-06T22:30:15.480Z,69.20
2018-03-06T22:32:44.087Z,74.45
2018-03-06T22:35:12.875Z,70.72
2018-03-06T22:37:41.351Z,71.07
2018-03-06T22:40:10.633Z,70.45
2018-03-06T22:42:41.729Z,68.47
2018-03-06T22:45:10.276Z,69.65
2018-03-06T22:47:38.850Z,69.62
2018-03-06T22:50:07.630Z,69.20
2018-03-06T22:52:36.111Z,68.90
2018-03-06T22:55:05.108Z,73.15
2018-03-06T22:57:34.358Z,71.10
2018-03-06T23:00:03.963Z,69.70
2018-03-06T23:02:33.289Z,72.82
2018-03-06T23:05:02.630Z,68.62
2018-03-06T23:07:31.198Z,66.75
2018-03-06T23:09:59.720Z,68.15
2018-03-06T23:12:28.370Z,69.80
2018-03-06T23:14:56.836Z,68.20
2018-03-06T23:17:25.437Z,69.30
2018-03-06T23:19:54.467Z,70.20
2018-03-06T23:22:23.000Z,69.47
2018-03-06T23:24:51.484Z,67.12
2018-03-06T23:27:19.969Z,69.93
2018-03-06T23:29:48.474Z,68.03
2018-03-06T23:32:17.313Z,66.05
2018-03-06T23:34:46.584Z,69.50
2018-03-06T23:37:15.020Z,69.55
2018-03-06T23:39:43.501Z,72.30
2018-03-06T23:42:12.015Z,69.45
2018-03-06T23:44:40.774Z,74.55
2018-03-06T23:47:09.460Z,70.72
2018-03-06T23:49:38.102Z,73.18
2018-03-06T23:52:06.798Z,70.95
2018-03-06T23:54:35.411Z,68.87
2018-03-06T23:57:03.990Z,67.30
2018-03-06T23:59:33.192Z,71.45
